sensor_id;sensor_type;location;lat;lon;timestamp;P1;durP1;ratioP1;P2;durP2;ratioP2
19341;SDS011;9807;48.258;12.690;2023-05-29T00:00:59;5.00;;;3.90;;
19341;SDS011;9807;48.258;12.690;2023-05-29T00:03:25;6.03;;;4.50;;
19341;SDS011;9807;48.258;12.690;2023-05-29T00:05:50;6.27;;;4.20;;
19341;SDS011;9807;48.258;12.690;2023-05-29T00:08:17;6.17;;;4.70;;
19341;SDS011;9807;48.258;12.690;2023-05-29T00:10:43;7.80;;;4.77;;
19341;SDS011;9807;48.258;12.690;2023-05-29T00:13:09;4.90;;;4.00;;
19341;SDS011;9807;48.258;12.690;2023-05-29T00:15:35;4.87;;;3.67;;
19341;SDS011;9807;48.258;12.690;2023-05-29T00:18:01;5.23;;;3.90;;
19341;SDS011;9807;48.258;12.690;2023-05-29T00:20:27;5.47;;;4.10;;
19341;SDS011;9807;48.258;12.690;2023-05-29T00:22:53;4.90;;;3.87;;
19341;SDS011;9807;48.258;12.690;2023-05-29T00:25:18;6.77;;;4.10;;
19341;SDS011;9807;48.258;12.690;2023-05-29T00:27:44;4.03;;;3.50;;
19341;SDS011;9807;48.258;12.690;2023-05-29T00:30:10;5.07;;;3.93;;
19341;SDS011;9807;48.258;12.690;2023-05-29T00:32:36;5.77;;;4.30;;
19341;SDS011;9807;48.258;12.690;2023-05-29T00:35:02;5.93;;;4.00;;
19341;SDS011;9807;48.258;12.690;2023-05-29T00:37:28;5.90;;;4.20;;
19341;SDS011;9807;48.258;12.690;2023-05-29T00:39:54;5.00;;;3.97;;
19341;SDS011;9807;48.258;12.690;2023-05-29T00:42:20;5.97;;;3.60;;
19341;SDS011;9807;48.258;12.690;2023-05-29T00:44:45;5.07;;;3.83;;
19341;SDS011;9807;48.258;12.690;2023-05-29T00:47:11;6.10;;;4.13;;
19341;SDS011;9807;48.258;12.690;2023-05-29T00:49:37;10.50;;;4.80;;
19341;SDS011;9807;48.258;12.690;2023-05-29T00:52:03;6.07;;;4.60;;
19341;SDS011;9807;48.258;12.690;2023-05-29T00:54:32;6.87;;;4.70;;
19341;SDS011;9807;48.258;12.690;2023-05-29T00:56:59;7.43;;;5.03;;
19341;SDS011;9807;48.258;12.690;2023-05-29T00:59:30;9.87;;;5.13;;
19341;SDS011;9807;48.258;12.690;2023-05-29T01:01:58;7.23;;;5.03;;
19341;SDS011;9807;48.258;12.690;2023-05-29T01:04:25;7.63;;;5.00;;
19341;SDS011;9807;48.258;12.690;2023-05-29T01:06:52;7.10;;;4.63;;
19341;SDS011;9807;48.258;12.690;2023-05-29T01:09:18;6.23;;;4.33;;
19341;SDS011;9807;48.258;12.690;2023-05-29T01:11:54;9.10;;;4.80;;
19341;SDS011;9807;48.258;12.690;2023-05-29T01:25:56;5.37;;;4.10;;
19341;SDS011;9807;48.258;12.690;2023-05-29T01:28:27;5.20;;;4.43;;
19341;SDS011;9807;48.258;12.690;2023-05-29T01:31:00;5.70;;;4.13;;
19341;SDS011;9807;48.258;12.690;2023-05-29T01:33:27;5.90;;;4.53;;
19341;SDS011;9807;48.258;12.690;2023-05-29T01:35:53;6.67;;;4.17;;
19341;SDS011;9807;48.258;12.690;2023-05-29T01:38:19;6.27;;;4.40;;
19341;SDS011;9807;48.258;12.690;2023-05-29T01:40:45;7.23;;;4.27;;
19341;SDS011;9807;48.258;12.690;2023-05-29T01:43:11;7.83;;;4.57;;
19341;SDS011;9807;48.258;12.690;2023-05-29T01:45:37;5.83;;;4.47;;
19341;SDS011;9807;48.258;12.690;2023-05-29T01:48:04;4.87;;;3.83;;
19341;SDS011;9807;48.258;12.690;2023-05-29T01:50:31;6.57;;;4.20;;
19341;SDS011;9807;48.258;12.690;2023-05-29T01:52:57;5.67;;;4.37;;
19341;SDS011;9807;48.258;12.690;2023-05-29T01:55:23;6.70;;;4.17;;
19341;SDS011;9807;48.258;12.690;2023-05-29T01:57:49;5.83;;;4.40;;
19341;SDS011;9807;48.258;12.690;2023-05-29T02:00:16;8.07;;;5.80;;
19341;SDS011;9807;48.258;12.690;2023-05-29T02:02:44;8.63;;;5.57;;
19341;SDS011;9807;48.258;12.690;2023-05-29T02:05:09;8.80;;;5.37;;
19341;SDS011;9807;48.258;12.690;2023-05-29T02:07:35;7.37;;;5.23;;
19341;SDS011;9807;48.258;12.690;2023-05-29T02:10:04;6.53;;;4.70;;
19341;SDS011;9807;48.258;12.690;2023-05-29T02:12:30;8.50;;;5.40;;
19341;SDS011;9807;48.258;12.690;2023-05-29T02:14:56;6.37;;;4.53;;
19341;SDS011;9807;48.258;12.690;2023-05-29T02:17:22;6.07;;;4.90;;
19341;SDS011;9807;48.258;12.690;2023-05-29T02:19:51;7.70;;;4.83;;
19341;SDS011;9807;48.258;12.690;2023-05-29T02:22:17;9.27;;;5.50;;
19341;SDS011;9807;48.258;12.690;2023-05-29T02:24:43;8.70;;;5.13;;
19341;SDS011;9807;48.258;12.690;2023-05-29T02:27:09;9.40;;;6.83;;
19341;SDS011;9807;48.258;12.690;2023-05-29T02:29:34;9.03;;;6.53;;
19341;SDS011;9807;48.258;12.690;2023-05-29T02:32:00;9.40;;;6.43;;
19341;SDS011;9807;48.258;12.690;2023-05-29T02:34:26;7.07;;;5.60;;
19341;SDS011;9807;48.258;12.690;2023-05-29T02:36:52;9.80;;;7.03;;
19341;SDS011;9807;48.258;12.690;2023-05-29T02:39:19;7.63;;;5.50;;
19341;SDS011;9807;48.258;12.690;2023-05-29T02:41:45;7.07;;;5.60;;
19341;SDS011;9807;48.258;12.690;2023-05-29T02:44:10;5.87;;;4.80;;
19341;SDS011;9807;48.258;12.690;2023-05-29T02:46:36;6.57;;;4.97;;
19341;SDS011;9807;48.258;12.690;2023-05-29T02:49:02;5.67;;;4.70;;
19341;SDS011;9807;48.258;12.690;2023-05-29T02:51:28;8.57;;;5.90;;
19341;SDS011;9807;48.258;12.690;2023-05-29T02:53:54;9.60;;;6.50;;
19341;SDS011;9807;48.258;12.690;2023-05-29T02:56:19;8.60;;;6.10;;
19341;SDS011;9807;48.258;12.690;2023-05-29T02:58:51;8.40;;;6.70;;
19341;SDS011;9807;48.258;12.690;2023-05-29T03:01:17;9.20;;;7.03;;
19341;SDS011;9807;48.258;12.690;2023-05-29T03:03:43;16.90;;;6.17;;
19341;SDS011;9807;48.258;12.690;2023-05-29T03:06:09;8.77;;;5.20;;
19341;SDS011;9807;48.258;12.690;2023-05-29T03:08:37;9.27;;;5.70;;
19341;SDS011;9807;48.258;12.690;2023-05-29T03:11:09;6.27;;;5.30;;
19341;SDS011;9807;48.258;12.690;2023-05-29T03:13:38;8.53;;;5.27;;
19341;SDS011;9807;48.258;12.690;2023-05-29T03:16:04;7.27;;;5.07;;
19341;SDS011;9807;48.258;12.690;2023-05-29T03:18:29;6.97;;;5.00;;
19341;SDS011;9807;48.258;12.690;2023-05-29T03:20:55;6.47;;;5.03;;
19341;SDS011;9807;48.258;12.690;2023-05-29T03:23:21;9.37;;;5.17;;
19341;SDS011;9807;48.258;12.690;2023-05-29T03:25:50;7.40;;;5.00;;
19341;SDS011;9807;48.258;12.690;2023-05-29T03:28:16;9.10;;;5.90;;
19341;SDS011;9807;48.258;12.690;2023-05-29T03:30:42;6.07;;;5.10;;
19341;SDS011;9807;48.258;12.690;2023-05-29T03:33:07;6.60;;;5.17;;
19341;SDS011;9807;48.258;12.690;2023-05-29T03:35:33;6.37;;;5.20;;
19341;SDS011;9807;48.258;12.690;2023-05-29T03:37:59;8.43;;;5.40;;
19341;SDS011;9807;48.258;12.690;2023-05-29T03:40:25;6.87;;;5.30;;
19341;SDS011;9807;48.258;12.690;2023-05-29T03:42:50;6.40;;;5.03;;
19341;SDS011;9807;48.258;12.690;2023-05-29T03:45:16;7.50;;;5.10;;
19341;SDS011;9807;48.258;12.690;2023-05-29T03:47:42;5.80;;;5.00;;
19341;SDS011;9807;48.258;12.690;2023-05-29T03:50:08;8.67;;;5.53;;
19341;SDS011;9807;48.258;12.690;2023-05-29T03:52:34;6.63;;;5.23;;
19341;SDS011;9807;48.258;12.690;2023-05-29T03:55:00;7.40;;;5.30;;
19341;SDS011;9807;48.258;12.690;2023-05-29T03:57:27;8.20;;;6.40;;
19341;SDS011;9807;48.258;12.690;2023-05-29T03:59:53;6.10;;;4.93;;
19341;SDS011;9807;48.258;12.690;2023-05-29T04:02:18;8.60;;;5.83;;
19341;SDS011;9807;48.258;12.690;2023-05-29T04:04:50;6.37;;;4.93;;
19341;SDS011;9807;48.258;12.690;2023-05-29T04:07:18;6.23;;;5.00;;
19341;SDS011;9807;48.258;12.690;2023-05-29T04:09:45;8.73;;;5.60;;
19341;SDS011;9807;48.258;12.690;2023-05-29T04:12:11;9.20;;;5.27;;
19341;SDS011;9807;48.258;12.690;2023-05-29T04:14:38;10.20;;;6.60;;
19341;SDS011;9807;48.258;12.690;2023-05-29T04:17:04;9.13;;;5.90;;
19341;SDS011;9807;48.258;12.690;2023-05-29T04:19:30;7.73;;;5.93;;
19341;SDS011;9807;48.258;12.690;2023-05-29T04:21:55;8.93;;;6.43;;
19341;SDS011;9807;48.258;12.690;2023-05-29T04:24:21;9.40;;;6.20;;
19341;SDS011;9807;48.258;12.690;2023-05-29T04:26:48;10.63;;;6.03;;
19341;SDS011;9807;48.258;12.690;2023-05-29T04:29:14;9.10;;;6.80;;
19341;SDS011;9807;48.258;12.690;2023-05-29T04:31:40;12.97;;;7.30;;
19341;SDS011;9807;48.258;12.690;2023-05-29T04:34:05;15.40;;;8.30;;
19341;SDS011;9807;48.258;12.690;2023-05-29T04:36:31;12.60;;;7.90;;
19341;SDS011;9807;48.258;12.690;2023-05-29T04:39:02;7.87;;;5.83;;
19341;SDS011;9807;48.258;12.690;2023-05-29T04:41:28;9.90;;;6.60;;
19341;SDS011;9807;48.258;12.690;2023-05-29T04:43:56;13.20;;;6.37;;
19341;SDS011;9807;48.258;12.690;2023-05-29T04:46:22;8.43;;;5.67;;
19341;SDS011;9807;48.258;12.690;2023-05-29T04:48:49;8.57;;;5.80;;
19341;SDS011;9807;48.258;12.690;2023-05-29T04:51:18;13.87;;;8.10;;
19341;SDS011;9807;48.258;12.690;2023-05-29T04:53:50;14.03;;;7.97;;
19341;SDS011;9807;48.258;12.690;2023-05-29T04:56:18;8.50;;;6.27;;
19341;SDS011;9807;48.258;12.690;2023-05-29T04:58:45;11.67;;;7.37;;
19341;SDS011;9807;48.258;12.690;2023-05-29T05:01:11;10.00;;;7.10;;
19341;SDS011;9807;48.258;12.690;2023-05-29T05:03:39;14.63;;;7.50;;
19341;SDS011;9807;48.258;12.690;2023-05-29T05:06:05;11.50;;;7.37;;
19341;SDS011;9807;48.258;12.690;2023-05-29T05:08:32;12.57;;;8.03;;
19341;SDS011;9807;48.258;12.690;2023-05-29T05:11:02;13.17;;;8.00;;
19341;SDS011;9807;48.258;12.690;2023-05-29T05:13:28;9.53;;;6.80;;
19341;SDS011;9807;48.258;12.690;2023-05-29T05:15:53;13.07;;;7.97;;
19341;SDS011;9807;48.258;12.690;2023-05-29T05:18:19;15.03;;;7.90;;
19341;SDS011;9807;48.258;12.690;2023-05-29T05:20:45;14.23;;;8.50;;
19341;SDS011;9807;48.258;12.690;2023-05-29T05:23:11;14.67;;;8.73;;
19341;SDS011;9807;48.258;12.690;2023-05-29T05:25:38;12.80;;;8.50;;
19341;SDS011;9807;48.258;12.690;2023-05-29T05:28:04;12.17;;;8.67;;
19341;SDS011;9807;48.258;12.690;2023-05-29T05:30:30;13.47;;;8.27;;
19341;SDS011;9807;48.258;12.690;2023-05-29T05:32:56;15.00;;;8.90;;
19341;SDS011;9807;48.258;12.690;2023-05-29T05:35:23;13.43;;;8.83;;
19341;SDS011;9807;48.258;12.690;2023-05-29T05:37:49;14.30;;;8.07;;
19341;SDS011;9807;48.258;12.690;2023-05-29T05:40:15;12.10;;;7.83;;
19341;SDS011;9807;48.258;12.690;2023-05-29T05:42:40;15.77;;;8.40;;
19341;SDS011;9807;48.258;12.690;2023-05-29T05:45:06;15.07;;;8.10;;
19341;SDS011;9807;48.258;12.690;2023-05-29T05:47:32;13.27;;;8.03;;
19341;SDS011;9807;48.258;12.690;2023-05-29T05:49:58;12.30;;;7.80;;
19341;SDS011;9807;48.258;12.690;2023-05-29T05:52:24;12.93;;;7.20;;
19341;SDS011;9807;48.258;12.690;2023-05-29T05:54:56;12.30;;;7.80;;
19341;SDS011;9807;48.258;12.690;2023-05-29T05:57:22;11.97;;;7.60;;
19341;SDS011;9807;48.258;12.690;2023-05-29T05:59:48;9.33;;;5.67;;
19341;SDS011;9807;48.258;12.690;2023-05-29T06:02:14;10.33;;;6.30;;
19341;SDS011;9807;48.258;12.690;2023-05-29T06:04:40;9.00;;;6.13;;
19341;SDS011;9807;48.258;12.690;2023-05-29T06:07:06;8.27;;;5.87;;
19341;SDS011;9807;48.258;12.690;2023-05-29T06:09:32;10.37;;;5.80;;
19341;SDS011;9807;48.258;12.690;2023-05-29T06:11:58;8.50;;;5.50;;
19341;SDS011;9807;48.258;12.690;2023-05-29T06:14:24;8.90;;;6.47;;
19341;SDS011;9807;48.258;12.690;2023-05-29T06:16:50;8.70;;;5.83;;
19341;SDS011;9807;48.258;12.690;2023-05-29T06:19:16;6.50;;;5.10;;
19341;SDS011;9807;48.258;12.690;2023-05-29T06:21:42;7.40;;;5.10;;
19341;SDS011;9807;48.258;12.690;2023-05-29T06:24:07;6.83;;;4.93;;
19341;SDS011;9807;48.258;12.690;2023-05-29T06:26:33;10.73;;;6.57;;
19341;SDS011;9807;48.258;12.690;2023-05-29T06:28:59;6.80;;;5.43;;
19341;SDS011;9807;48.258;12.690;2023-05-29T06:31:25;7.77;;;6.00;;
19341;SDS011;9807;48.258;12.690;2023-05-29T06:33:50;8.60;;;5.87;;
19341;SDS011;9807;48.258;12.690;2023-05-29T06:36:16;8.23;;;5.80;;
19341;SDS011;9807;48.258;12.690;2023-05-29T06:38:49;10.47;;;6.40;;
19341;SDS011;9807;48.258;12.690;2023-05-29T06:41:15;9.97;;;6.07;;
19341;SDS011;9807;48.258;12.690;2023-05-29T06:43:41;10.83;;;6.30;;
19341;SDS011;9807;48.258;12.690;2023-05-29T06:46:07;8.07;;;6.23;;
19341;SDS011;9807;48.258;12.690;2023-05-29T06:48:33;9.90;;;6.00;;
19341;SDS011;9807;48.258;12.690;2023-05-29T06:51:00;10.00;;;6.57;;
19341;SDS011;9807;48.258;12.690;2023-05-29T06:53:40;9.60;;;4.73;;
19341;SDS011;9807;48.258;12.690;2023-05-29T06:56:06;7.50;;;5.23;;
19341;SDS011;9807;48.258;12.690;2023-05-29T06:58:32;10.60;;;6.10;;
19341;SDS011;9807;48.258;12.690;2023-05-29T07:00:58;8.90;;;5.90;;
19341;SDS011;9807;48.258;12.690;2023-05-29T07:03:25;10.47;;;6.13;;
19341;SDS011;9807;48.258;12.690;2023-05-29T07:05:51;9.03;;;4.97;;
19341;SDS011;9807;48.258;12.690;2023-05-29T07:08:17;9.20;;;6.13;;
19341;SDS011;9807;48.258;12.690;2023-05-29T07:10:43;8.13;;;6.13;;
19341;SDS011;9807;48.258;12.690;2023-05-29T07:13:09;11.30;;;5.70;;
19341;SDS011;9807;48.258;12.690;2023-05-29T07:15:37;5.27;;;4.60;;
19341;SDS011;9807;48.258;12.690;2023-05-29T07:18:03;6.87;;;4.60;;
19341;SDS011;9807;48.258;12.690;2023-05-29T07:20:29;5.67;;;4.40;;
19341;SDS011;9807;48.258;12.690;2023-05-29T07:22:54;10.27;;;5.53;;
19341;SDS011;9807;48.258;12.690;2023-05-29T07:25:20;7.03;;;5.50;;
19341;SDS011;9807;48.258;12.690;2023-05-29T07:27:46;6.83;;;4.67;;
19341;SDS011;9807;48.258;12.690;2023-05-29T07:30:12;7.97;;;5.70;;
19341;SDS011;9807;48.258;12.690;2023-05-29T07:32:39;10.33;;;5.63;;
19341;SDS011;9807;48.258;12.690;2023-05-29T07:35:05;11.07;;;5.90;;
19341;SDS011;9807;48.258;12.690;2023-05-29T07:37:31;10.17;;;5.40;;
19341;SDS011;9807;48.258;12.690;2023-05-29T07:39:57;8.87;;;5.17;;
19341;SDS011;9807;48.258;12.690;2023-05-29T07:42:22;9.87;;;4.97;;
19341;SDS011;9807;48.258;12.690;2023-05-29T07:44:48;10.10;;;5.93;;
19341;SDS011;9807;48.258;12.690;2023-05-29T07:47:14;7.70;;;5.20;;
19341;SDS011;9807;48.258;12.690;2023-05-29T07:49:40;6.13;;;4.57;;
19341;SDS011;9807;48.258;12.690;2023-05-29T07:52:05;6.37;;;4.70;;
19341;SDS011;9807;48.258;12.690;2023-05-29T07:54:31;7.13;;;4.50;;
19341;SDS011;9807;48.258;12.690;2023-05-29T07:56:58;9.70;;;4.73;;
19341;SDS011;9807;48.258;12.690;2023-05-29T07:59:25;8.43;;;5.67;;
19341;SDS011;9807;48.258;12.690;2023-05-29T08:01:51;6.27;;;4.70;;
19341;SDS011;9807;48.258;12.690;2023-05-29T08:04:17;9.33;;;4.73;;
19341;SDS011;9807;48.258;12.690;2023-05-29T08:06:42;6.17;;;4.30;;
19341;SDS011;9807;48.258;12.690;2023-05-29T08:09:08;7.67;;;4.93;;
19341;SDS011;9807;48.258;12.690;2023-05-29T08:11:35;8.13;;;5.20;;
19341;SDS011;9807;48.258;12.690;2023-05-29T08:14:02;7.10;;;4.20;;
19341;SDS011;9807;48.258;12.690;2023-05-29T08:16:28;7.27;;;5.20;;
19341;SDS011;9807;48.258;12.690;2023-05-29T08:18:54;9.57;;;5.20;;
19341;SDS011;9807;48.258;12.690;2023-05-29T08:21:20;7.23;;;5.57;;
19341;SDS011;9807;48.258;12.690;2023-05-29T08:23:45;6.17;;;4.43;;
19341;SDS011;9807;48.258;12.690;2023-05-29T08:26:11;5.87;;;4.43;;
19341;SDS011;9807;48.258;12.690;2023-05-29T08:28:38;7.57;;;5.03;;
19341;SDS011;9807;48.258;12.690;2023-05-29T08:31:04;10.37;;;4.43;;
19341;SDS011;9807;48.258;12.690;2023-05-29T08:33:30;11.63;;;4.93;;
19341;SDS011;9807;48.258;12.690;2023-05-29T08:35:57;9.10;;;4.97;;
19341;SDS011;9807;48.258;12.690;2023-05-29T08:38:23;8.27;;;4.93;;
19341;SDS011;9807;48.258;12.690;2023-05-29T08:40:51;9.10;;;4.57;;
19341;SDS011;9807;48.258;12.690;2023-05-29T08:43:21;13.23;;;5.33;;
19341;SDS011;9807;48.258;12.690;2023-05-29T08:45:52;10.57;;;5.27;;
19341;SDS011;9807;48.258;12.690;2023-05-29T08:48:20;6.47;;;4.60;;
19341;SDS011;9807;48.258;12.690;2023-05-29T08:50:48;7.00;;;4.80;;
19341;SDS011;9807;48.258;12.690;2023-05-29T08:53:17;7.13;;;5.43;;
19341;SDS011;9807;48.258;12.690;2023-05-29T08:55:44;10.07;;;5.50;;
19341;SDS011;9807;48.258;12.690;2023-05-29T08:58:12;6.70;;;4.40;;
19341;SDS011;9807;48.258;12.690;2023-05-29T09:00:39;5.90;;;4.37;;
19341;SDS011;9807;48.258;12.690;2023-05-29T09:03:06;9.50;;;5.70;;
19341;SDS011;9807;48.258;12.690;2023-05-29T09:05:32;7.37;;;4.90;;
19341;SDS011;9807;48.258;12.690;2023-05-29T09:07:58;8.37;;;5.47;;
19341;SDS011;9807;48.258;12.690;2023-05-29T09:10:24;9.10;;;5.00;;
19341;SDS011;9807;48.258;12.690;2023-05-29T09:12:52;8.90;;;5.10;;
19341;SDS011;9807;48.258;12.690;2023-05-29T09:15:22;6.80;;;4.90;;
19341;SDS011;9807;48.258;12.690;2023-05-29T09:17:52;8.03;;;4.77;;
19341;SDS011;9807;48.258;12.690;2023-05-29T09:20:22;11.17;;;4.73;;
19341;SDS011;9807;48.258;12.690;2023-05-29T09:22:52;7.47;;;4.50;;
19341;SDS011;9807;48.258;12.690;2023-05-29T09:25:26;9.03;;;5.00;;
19341;SDS011;9807;48.258;12.690;2023-05-29T09:28:03;7.03;;;5.00;;
19341;SDS011;9807;48.258;12.690;2023-05-29T09:33:05;7.53;;;5.07;;
19341;SDS011;9807;48.258;12.690;2023-05-29T09:35:38;7.17;;;4.73;;
19341;SDS011;9807;48.258;12.690;2023-05-29T09:38:09;7.93;;;4.80;;
19341;SDS011;9807;48.258;12.690;2023-05-29T09:40:37;6.90;;;4.87;;
19341;SDS011;9807;48.258;12.690;2023-05-29T09:43:09;6.87;;;4.90;;
19341;SDS011;9807;48.258;12.690;2023-05-29T09:45:41;7.67;;;4.80;;
19341;SDS011;9807;48.258;12.690;2023-05-29T09:48:10;7.60;;;4.60;;
19341;SDS011;9807;48.258;12.690;2023-05-29T09:50:39;7.13;;;4.53;;
19341;SDS011;9807;48.258;12.690;2023-05-29T09:53:15;8.93;;;5.27;;
19341;SDS011;9807;48.258;12.690;2023-05-29T09:55:51;9.17;;;4.63;;
19341;SDS011;9807;48.258;12.690;2023-05-29T09:58:19;8.00;;;5.00;;
19341;SDS011;9807;48.258;12.690;2023-05-29T10:00:49;7.50;;;5.23;;
19341;SDS011;9807;48.258;12.690;2023-05-29T10:03:16;8.20;;;5.23;;
19341;SDS011;9807;48.258;12.690;2023-05-29T10:05:43;6.27;;;4.57;;
19341;SDS011;9807;48.258;12.690;2023-05-29T10:08:14;6.40;;;4.63;;
19341;SDS011;9807;48.258;12.690;2023-05-29T10:10:46;7.60;;;5.13;;
19341;SDS011;9807;48.258;12.690;2023-05-29T10:13:14;9.47;;;5.23;;
19341;SDS011;9807;48.258;12.690;2023-05-29T10:15:43;9.70;;;4.70;;
19341;SDS011;9807;48.258;12.690;2023-05-29T10:18:27;8.47;;;5.10;;
19341;SDS011;9807;48.258;12.690;2023-05-29T10:21:00;6.60;;;5.17;;
19341;SDS011;9807;48.258;12.690;2023-05-29T10:23:28;8.20;;;4.97;;
19341;SDS011;9807;48.258;12.690;2023-05-29T10:25:57;10.30;;;5.30;;
19341;SDS011;9807;48.258;12.690;2023-05-29T10:28:29;9.23;;;5.43;;
19341;SDS011;9807;48.258;12.690;2023-05-29T10:31:00;12.57;;;5.10;;
19341;SDS011;9807;48.258;12.690;2023-05-29T10:33:44;10.77;;;5.00;;
19341;SDS011;9807;48.258;12.690;2023-05-29T10:36:23;7.93;;;4.57;;
19341;SDS011;9807;48.258;12.690;2023-05-29T10:38:53;9.60;;;4.73;;
19341;SDS011;9807;48.258;12.690;2023-05-29T10:43:53;6.67;;;5.00;;
19341;SDS011;9807;48.258;12.690;2023-05-29T10:49:23;8.60;;;4.90;;
19341;SDS011;9807;48.258;12.690;2023-05-29T10:51:49;7.67;;;4.97;;
19341;SDS011;9807;48.258;12.690;2023-05-29T10:54:16;6.20;;;4.80;;
19341;SDS011;9807;48.258;12.690;2023-05-29T10:56:45;7.60;;;4.60;;
19341;SDS011;9807;48.258;12.690;2023-05-29T10:59:17;8.17;;;4.90;;
19341;SDS011;9807;48.258;12.690;2023-05-29T11:01:43;7.97;;;4.73;;
19341;SDS011;9807;48.258;12.690;2023-05-29T11:04:30;7.13;;;4.60;;
19341;SDS011;9807;48.258;12.690;2023-05-29T11:06:57;6.83;;;5.10;;
19341;SDS011;9807;48.258;12.690;2023-05-29T11:09:31;8.30;;;4.80;;
19341;SDS011;9807;48.258;12.690;2023-05-29T11:14:54;8.90;;;4.97;;
19341;SDS011;9807;48.258;12.690;2023-05-29T11:20:07;7.30;;;5.10;;
19341;SDS011;9807;48.258;12.690;2023-05-29T11:22:45;10.87;;;4.57;;
19341;SDS011;9807;48.258;12.690;2023-05-29T11:25:25;6.90;;;4.90;;
19341;SDS011;9807;48.258;12.690;2023-05-29T11:27:52;7.17;;;4.97;;
19341;SDS011;9807;48.258;12.690;2023-05-29T11:30:18;6.47;;;4.50;;
19341;SDS011;9807;48.258;12.690;2023-05-29T11:32:45;6.70;;;4.50;;
19341;SDS011;9807;48.258;12.690;2023-05-29T11:35:12;8.37;;;4.90;;
19341;SDS011;9807;48.258;12.690;2023-05-29T11:37:39;6.73;;;4.60;;
19341;SDS011;9807;48.258;12.690;2023-05-29T11:40:13;7.93;;;4.87;;
19341;SDS011;9807;48.258;12.690;2023-05-29T11:42:43;9.37;;;4.70;;
19341;SDS011;9807;48.258;12.690;2023-05-29T11:50:22;9.67;;;4.93;;
19341;SDS011;9807;48.258;12.690;2023-05-29T11:52:56;6.30;;;4.40;;
19341;SDS011;9807;48.258;12.690;2023-05-29T11:55:22;8.27;;;4.83;;
19341;SDS011;9807;48.258;12.690;2023-05-29T11:57:49;7.60;;;4.97;;
19341;SDS011;9807;48.258;12.690;2023-05-29T12:00:16;7.60;;;4.67;;
19341;SDS011;9807;48.258;12.690;2023-05-29T12:02:44;7.80;;;5.10;;
19341;SDS011;9807;48.258;12.690;2023-05-29T12:05:12;5.47;;;4.30;;
19341;SDS011;9807;48.258;12.690;2023-05-29T12:07:52;8.20;;;4.80;;
19341;SDS011;9807;48.258;12.690;2023-05-29T12:10:21;8.47;;;4.50;;
19341;SDS011;9807;48.258;12.690;2023-05-29T12:12:49;7.40;;;4.37;;
19341;SDS011;9807;48.258;12.690;2023-05-29T12:15:16;7.57;;;4.40;;
19341;SDS011;9807;48.258;12.690;2023-05-29T12:17:43;8.43;;;4.43;;
19341;SDS011;9807;48.258;12.690;2023-05-29T12:20:10;10.03;;;4.70;;
19341;SDS011;9807;48.258;12.690;2023-05-29T12:22:37;10.10;;;4.70;;
19341;SDS011;9807;48.258;12.690;2023-05-29T12:25:07;6.70;;;4.37;;
19341;SDS011;9807;48.258;12.690;2023-05-29T12:27:39;7.67;;;4.17;;
19341;SDS011;9807;48.258;12.690;2023-05-29T12:30:11;6.63;;;4.47;;
19341;SDS011;9807;48.258;12.690;2023-05-29T12:32:40;8.33;;;4.73;;
19341;SDS011;9807;48.258;12.690;2023-05-29T12:37:47;6.30;;;4.30;;
19341;SDS011;9807;48.258;12.690;2023-05-29T12:40:21;8.03;;;4.20;;
19341;SDS011;9807;48.258;12.690;2023-05-29T12:43:09;6.73;;;4.60;;
19341;SDS011;9807;48.258;12.690;2023-05-29T12:45:34;7.87;;;4.50;;
19341;SDS011;9807;48.258;12.690;2023-05-29T12:48:03;6.37;;;4.60;;
19341;SDS011;9807;48.258;12.690;2023-05-29T12:50:48;5.33;;;4.10;;
19341;SDS011;9807;48.258;12.690;2023-05-29T12:53:15;5.63;;;4.30;;
19341;SDS011;9807;48.258;12.690;2023-05-29T12:55:41;7.83;;;4.20;;
19341;SDS011;9807;48.258;12.690;2023-05-29T12:58:08;8.43;;;4.50;;
19341;SDS011;9807;48.258;12.690;2023-05-29T13:00:36;6.83;;;4.47;;
19341;SDS011;9807;48.258;12.690;2023-05-29T13:03:06;6.27;;;4.40;;
19341;SDS011;9807;48.258;12.690;2023-05-29T13:05:32;6.87;;;4.67;;
19341;SDS011;9807;48.258;12.690;2023-05-29T13:07:59;5.40;;;4.47;;
19341;SDS011;9807;48.258;12.690;2023-05-29T13:10:26;6.40;;;4.70;;
19341;SDS011;9807;48.258;12.690;2023-05-29T13:12:53;5.87;;;3.93;;
19341;SDS011;9807;48.258;12.690;2023-05-29T13:15:20;7.53;;;4.87;;
19341;SDS011;9807;48.258;12.690;2023-05-29T13:17:46;7.73;;;4.23;;
19341;SDS011;9807;48.258;12.690;2023-05-29T13:20:14;8.43;;;4.57;;
19341;SDS011;9807;48.258;12.690;2023-05-29T13:22:40;9.80;;;4.20;;
19341;SDS011;9807;48.258;12.690;2023-05-29T13:25:07;10.47;;;4.20;;
19341;SDS011;9807;48.258;12.690;2023-05-29T13:27:35;6.60;;;4.20;;
19341;SDS011;9807;48.258;12.690;2023-05-29T13:30:05;7.30;;;4.50;;
19341;SDS011;9807;48.258;12.690;2023-05-29T13:32:32;6.40;;;4.40;;
19341;SDS011;9807;48.258;12.690;2023-05-29T13:34:58;9.30;;;4.60;;
19341;SDS011;9807;48.258;12.690;2023-05-29T13:37:23;6.70;;;4.20;;
19341;SDS011;9807;48.258;12.690;2023-05-29T13:39:49;6.13;;;3.90;;
19341;SDS011;9807;48.258;12.690;2023-05-29T13:42:17;5.90;;;4.00;;
19341;SDS011;9807;48.258;12.690;2023-05-29T13:44:43;6.47;;;4.13;;
19341;SDS011;9807;48.258;12.690;2023-05-29T13:47:09;6.37;;;4.20;;
19341;SDS011;9807;48.258;12.690;2023-05-29T13:49:35;8.13;;;4.40;;
19341;SDS011;9807;48.258;12.690;2023-05-29T13:52:02;6.73;;;4.67;;
19341;SDS011;9807;48.258;12.690;2023-05-29T13:54:28;7.23;;;4.27;;
19341;SDS011;9807;48.258;12.690;2023-05-29T13:56:56;9.30;;;5.10;;
19341;SDS011;9807;48.258;12.690;2023-05-29T13:59:23;6.13;;;4.23;;
19341;SDS011;9807;48.258;12.690;2023-05-29T14:01:49;5.03;;;4.10;;
19341;SDS011;9807;48.258;12.690;2023-05-29T14:04:15;5.47;;;3.80;;
19341;SDS011;9807;48.258;12.690;2023-05-29T14:06:41;5.87;;;4.43;;
19341;SDS011;9807;48.258;12.690;2023-05-29T14:09:07;7.27;;;4.57;;
19341;SDS011;9807;48.258;12.690;2023-05-29T14:11:36;5.87;;;4.20;;
19341;SDS011;9807;48.258;12.690;2023-05-29T14:14:02;8.73;;;4.53;;
19341;SDS011;9807;48.258;12.690;2023-05-29T14:16:29;8.43;;;4.60;;
19341;SDS011;9807;48.258;12.690;2023-05-29T14:18:55;5.57;;;4.30;;
19341;SDS011;9807;48.258;12.690;2023-05-29T14:21:21;5.50;;;4.07;;
19341;SDS011;9807;48.258;12.690;2023-05-29T14:23:46;6.80;;;4.10;;
19341;SDS011;9807;48.258;12.690;2023-05-29T14:26:13;6.57;;;4.20;;
19341;SDS011;9807;48.258;12.690;2023-05-29T14:28:39;7.63;;;4.47;;
19341;SDS011;9807;48.258;12.690;2023-05-29T14:31:05;10.20;;;4.20;;
19341;SDS011;9807;48.258;12.690;2023-05-29T14:33:31;6.10;;;4.17;;
19341;SDS011;9807;48.258;12.690;2023-05-29T14:35:57;6.63;;;4.30;;
19341;SDS011;9807;48.258;12.690;2023-05-29T14:38:23;7.37;;;4.20;;
19341;SDS011;9807;48.258;12.690;2023-05-29T14:40:49;5.80;;;4.10;;
19341;SDS011;9807;48.258;12.690;2023-05-29T14:43:14;7.80;;;4.30;;
19341;SDS011;9807;48.258;12.690;2023-05-29T14:45:40;5.50;;;3.90;;
19341;SDS011;9807;48.258;12.690;2023-05-29T14:48:06;6.50;;;4.40;;
19341;SDS011;9807;48.258;12.690;2023-05-29T14:50:31;6.60;;;4.30;;
19341;SDS011;9807;48.258;12.690;2023-05-29T14:52:57;5.23;;;3.80;;
19341;SDS011;9807;48.258;12.690;2023-05-29T14:55:23;5.43;;;4.37;;
19341;SDS011;9807;48.258;12.690;2023-05-29T14:57:49;6.50;;;4.53;;
19341;SDS011;9807;48.258;12.690;2023-05-29T15:00:15;6.80;;;4.27;;
19341;SDS011;9807;48.258;12.690;2023-05-29T15:02:41;5.07;;;4.00;;
19341;SDS011;9807;48.258;12.690;2023-05-29T15:05:07;6.93;;;4.23;;
19341;SDS011;9807;48.258;12.690;2023-05-29T15:07:33;7.30;;;4.23;;
19341;SDS011;9807;48.258;12.690;2023-05-29T15:09:59;5.67;;;4.40;;
19341;SDS011;9807;48.258;12.690;2023-05-29T15:12:25;5.67;;;4.20;;
19341;SDS011;9807;48.258;12.690;2023-05-29T15:14:51;5.40;;;4.40;;
19341;SDS011;9807;48.258;12.690;2023-05-29T15:17:17;5.63;;;4.33;;
19341;SDS011;9807;48.258;12.690;2023-05-29T15:19:43;5.73;;;4.37;;